sensor_id;sensor_type;location;lat;lon;timestamp;temperature;humidity
12845;DHT22;68700;48.534;9.196;2023-06-14T00:01:35;12.20;1.00
12845;DHT22;68700;48.534;9.196;2023-06-14T00:05:04;12.20;1.00
12845;DHT22;68700;48.534;9.196;2023-06-14T00:08:29;12.10;1.00
12845;DHT22;68700;48.534;9.196;2023-06-14T00:11:56;12.10;1.00
12845;DHT22;68700;48.534;9.196;2023-06-14T00:15:18;12.00;1.00
12845;DHT22;68700;48.534;9.196;2023-06-14T00:18:41;12.00;1.00
12845;DHT22;68700;48.534;9.196;2023-06-14T00:22:04;11.90;1.00
12845;DHT22;68700;48.534;9.196;2023-06-14T00:25:27;11.80;1.00
12845;DHT22;68700;48.534;9.196;2023-06-14T00:28:49;11.80;1.00
12845;DHT22;68700;48.534;9.196;2023-06-14T00:32:10;11.80;1.00
12845;DHT22;68700;48.534;9.196;2023-06-14T00:35:34;11.70;1.00
12845;DHT22;68700;48.534;9.196;2023-06-14T00:38:55;11.60;1.00
12845;DHT22;68700;48.534;9.196;2023-06-14T00:42:24;11.60;1.00
12845;DHT22;68700;48.534;9.196;2023-06-14T00:45:46;11.60;1.00
12845;DHT22;68700;48.534;9.196;2023-06-14T00:49:10;11.50;1.00
12845;DHT22;68700;48.534;9.196;2023-06-14T00:52:34;11.40;1.00
12845;DHT22;68700;48.534;9.196;2023-06-14T00:55:56;11.40;1.00
12845;DHT22;68700;48.534;9.196;2023-06-14T00:59:18;11.30;1.00
12845;DHT22;68700;48.534;9.196;2023-06-14T01:02:40;11.30;1.00
12845;DHT22;68700;48.534;9.196;2023-06-14T01:06:15;11.20;1.00
12845;DHT22;68700;48.534;9.196;2023-06-14T01:09:58;11.20;1.00
12845;DHT22;68700;48.534;9.196;2023-06-14T01:13:27;11.20;1.00
12845;DHT22;68700;48.534;9.196;2023-06-14T01:16:51;11.10;1.00
12845;DHT22;68700;48.534;9.196;2023-06-14T01:20:13;11.10;1.00
12845;DHT22;68700;48.534;9.196;2023-06-14T01:23:39;11.00;1.00
12845;DHT22;68700;48.534;9.196;2023-06-14T01:27:02;11.00;1.00
12845;DHT22;68700;48.534;9.196;2023-06-14T01:30:24;10.90;1.00
12845;DHT22;68700;48.534;9.196;2023-06-14T01:33:49;10.90;1.00
12845;DHT22;68700;48.534;9.196;2023-06-14T01:37:25;10.80;1.00
12845;DHT22;68700;48.534;9.196;2023-06-14T01:40:50;10.80;1.00
12845;DHT22;68700;48.534;9.196;2023-06-14T01:44:13;10.70;1.00
12845;DHT22;68700;48.534;9.196;2023-06-14T01:47:36;10.60;1.00
12845;DHT22;68700;48.534;9.196;2023-06-14T01:50:58;10.50;1.00
12845;DHT22;68700;48.534;9.196;2023-06-14T01:54:20;10.50;1.00
12845;DHT22;68700;48.534;9.196;2023-06-14T01:57:43;10.50;1.00
12845;DHT22;68700;48.534;9.196;2023-06-14T02:01:05;10.40;1.00
12845;DHT22;68700;48.534;9.196;2023-06-14T02:04:27;10.40;1.00
12845;DHT22;68700;48.534;9.196;2023-06-14T02:07:49;10.30;1.00
12845;DHT22;68700;48.534;9.196;2023-06-14T02:11:11;10.30;1.00
12845;DHT22;68700;48.534;9.196;2023-06-14T02:14:34;10.30;1.00
12845;DHT22;68700;48.534;9.196;2023-06-14T02:18:00;10.20;1.00
12845;DHT22;68700;48.534;9.196;2023-06-14T02:21:22;10.20;1.00
12845;DHT22;68700;48.534;9.196;2023-06-14T02:24:44;10.10;1.00
12845;DHT22;68700;48.534;9.196;2023-06-14T02:28:07;10.10;1.00
12845;DHT22;68700;48.534;9.196;2023-06-14T02:31:30;10.10;1.00
12845;DHT22;68700;48.534;9.196;2023-06-14T02:34:52;10.00;1.00
12845;DHT22;68700;48.534;9.196;2023-06-14T02:38:14;10.00;1.00
12845;DHT22;68700;48.534;9.196;2023-06-14T02:41:36;9.90;1.00
12845;DHT22;68700;48.534;9.196;2023-06-14T02:44:58;9.90;1.00
12845;DHT22;68700;48.534;9.196;2023-06-14T02:48:21;9.90;1.00
12845;DHT22;68700;48.534;9.196;2023-06-14T02:51:43;9.90;1.00
12845;DHT22;68700;48.534;9.196;2023-06-14T02:55:06;9.90;1.00
12845;DHT22;68700;48.534;9.196;2023-06-14T02:58:28;9.90;1.00
12845;DHT22;68700;48.534;9.196;2023-06-14T03:01:50;9.90;1.00
12845;DHT22;68700;48.534;9.196;2023-06-14T03:05:13;9.90;1.00
12845;DHT22;68700;48.534;9.196;2023-06-14T03:08:36;9.90;1.00
12845;DHT22;68700;48.534;9.196;2023-06-14T03:11:59;9.90;1.00
12845;DHT22;68700;48.534;9.196;2023-06-14T03:15:21;9.90;1.00
12845;DHT22;68700;48.534;9.196;2023-06-14T03:18:44;9.90;1.00
12845;DHT22;68700;48.534;9.196;2023-06-14T03:22:07;9.80;1.00
12845;DHT22;68700;48.534;9.196;2023-06-14T03:25:29;9.80;1.00
12845;DHT22;68700;48.534;9.196;2023-06-14T03:28:51;9.80;1.00
12845;DHT22;68700;48.534;9.196;2023-06-14T03:32:13;9.80;1.00
12845;DHT22;68700;48.534;9.196;2023-06-14T03:35:35;9.70;1.00
12845;DHT22;68700;48.534;9.196;2023-06-14T03:38:58;9.70;1.00
12845;DHT22;68700;48.534;9.196;2023-06-14T03:42:20;9.70;1.00
12845;DHT22;68700;48.534;9.196;2023-06-14T03:45:42;9.70;1.00
12845;DHT22;68700;48.534;9.196;2023-06-14T03:49:04;9.70;1.00
12845;DHT22;68700;48.534;9.196;2023-06-14T03:52:26;9.70;1.00
12845;DHT22;68700;48.534;9.196;2023-06-14T03:55:49;9.80;1.00
12845;DHT22;68700;48.534;9.196;2023-06-14T03:59:12;9.70;1.00
12845;DHT22;68700;48.534;9.196;2023-06-14T04:02:34;9.80;1.00
12845;DHT22;68700;48.534;9.196;2023-06-14T04:05:56;9.80;1.00
12845;DHT22;68700;48.534;9.196;2023-06-14T04:09:20;9.90;1.00
12845;DHT22;68700;48.534;9.196;2023-06-14T04:12:43;9.90;1.00
12845;DHT22;68700;48.534;9.196;2023-06-14T04:16:05;9.90;1.00
12845;DHT22;68700;48.534;9.196;2023-06-14T04:19:27;9.90;1.00
12845;DHT22;68700;48.534;9.196;2023-06-14T04:22:49;10.00;1.00
12845;DHT22;68700;48.534;9.196;2023-06-14T04:26:10;10.10;1.00
12845;DHT22;68700;48.534;9.196;2023-06-14T04:29:34;10.20;1.00
12845;DHT22;68700;48.534;9.196;2023-06-14T04:32:56;10.30;1.00
12845;DHT22;68700;48.534;9.196;2023-06-14T04:36:19;10.40;1.00
12845;DHT22;68700;48.534;9.196;2023-06-14T04:39:41;10.50;1.00
12845;DHT22;68700;48.534;9.196;2023-06-14T04:43:03;10.60;1.00
12845;DHT22;68700;48.534;9.196;2023-06-14T04:46:28;10.70;1.00
12845;DHT22;68700;48.534;9.196;2023-06-14T04:49:52;10.80;1.00
12845;DHT22;68700;48.534;9.196;2023-06-14T04:53:14;10.80;1.00
12845;DHT22;68700;48.534;9.196;2023-06-14T04:56:36;11.00;1.00
12845;DHT22;68700;48.534;9.196;2023-06-14T04:59:58;11.10;1.00
12845;DHT22;68700;48.534;9.196;2023-06-14T05:03:22;11.20;1.00
12845;DHT22;68700;48.534;9.196;2023-06-14T05:06:45;11.40;1.00
12845;DHT22;68700;48.534;9.196;2023-06-14T05:10:09;11.50;1.00
12845;DHT22;68700;48.534;9.196;2023-06-14T05:13:31;11.60;1.00
12845;DHT22;68700;48.534;9.196;2023-06-14T05:16:55;11.80;1.00
12845;DHT22;68700;48.534;9.196;2023-06-14T05:20:19;11.90;1.00
12845;DHT22;68700;48.534;9.196;2023-06-14T05:23:41;12.00;1.00
12845;DHT22;68700;48.534;9.196;2023-06-14T05:27:03;12.20;1.00
12845;DHT22;68700;48.534;9.196;2023-06-14T05:30:26;12.30;1.00
12845;DHT22;68700;48.534;9.196;2023-06-14T05:33:50;12.50;1.00
12845;DHT22;68700;48.534;9.196;2023-06-14T05:37:14;12.70;1.00
12845;DHT22;68700;48.534;9.196;2023-06-14T05:40:36;12.80;1.00
12845;DHT22;68700;48.534;9.196;2023-06-14T05:43:58;13.00;1.00
12845;DHT22;68700;48.534;9.196;2023-06-14T05:47:20;13.20;1.00
12845;DHT22;68700;48.534;9.196;2023-06-14T05:50:42;13.30;1.00
12845;DHT22;68700;48.534;9.196;2023-06-14T05:54:05;13.40;1.00
12845;DHT22;68700;48.534;9.196;2023-06-14T05:57:27;13.50;1.00
12845;DHT22;68700;48.534;9.196;2023-06-14T06:00:49;13.90;1.00
12845;DHT22;68700;48.534;9.196;2023-06-14T06:04:11;14.00;1.00
12845;DHT22;68700;48.534;9.196;2023-06-14T06:07:33;14.30;1.00
12845;DHT22;68700;48.534;9.196;2023-06-14T06:10:56;14.60;1.00
12845;DHT22;68700;48.534;9.196;2023-06-14T06:14:18;14.80;1.00
12845;DHT22;68700;48.534;9.196;2023-06-14T06:17:40;15.10;1.00
12845;DHT22;68700;48.534;9.196;2023-06-14T06:21:03;15.60;99.90
12845;DHT22;68700;48.534;9.196;2023-06-14T06:24:25;15.80;99.90
12845;DHT22;68700;48.534;9.196;2023-06-14T06:27:48;16.90;99.90
12845;DHT22;68700;48.534;9.196;2023-06-14T06:31:10;17.40;99.90
12845;DHT22;68700;48.534;9.196;2023-06-14T06:34:32;18.10;99.90
12845;DHT22;68700;48.534;9.196;2023-06-14T06:37:54;18.50;99.90
12845;DHT22;68700;48.534;9.196;2023-06-14T06:41:16;18.90;99.90
12845;DHT22;68700;48.534;9.196;2023-06-14T06:44:39;19.50;99.90
12845;DHT22;68700;48.534;9.196;2023-06-14T06:48:01;20.20;99.90
12845;DHT22;68700;48.534;9.196;2023-06-14T06:51:23;20.90;99.90
12845;DHT22;68700;48.534;9.196;2023-06-14T06:54:45;21.20;99.90
12845;DHT22;68700;48.534;9.196;2023-06-14T06:58:07;21.40;99.90
12845;DHT22;68700;48.534;9.196;2023-06-14T07:01:30;21.60;99.90
12845;DHT22;68700;48.534;9.196;2023-06-14T07:04:54;21.20;99.90
12845;DHT22;68700;48.534;9.196;2023-06-14T07:08:16;21.20;99.90
12845;DHT22;68700;48.534;9.196;2023-06-14T07:11:38;21.40;99.90
12845;DHT22;68700;48.534;9.196;2023-06-14T07:15:00;22.00;99.90
12845;DHT22;68700;48.534;9.196;2023-06-14T07:18:23;22.40;99.90
12845;DHT22;68700;48.534;9.196;2023-06-14T07:21:45;23.00;99.90
12845;DHT22;68700;48.534;9.196;2023-06-14T07:25:07;23.70;99.90
12845;DHT22;68700;48.534;9.196;2023-06-14T07:28:29;24.20;99.90
12845;DHT22;68700;48.534;9.196;2023-06-14T07:31:51;24.10;99.90
12845;DHT22;68700;48.534;9.196;2023-06-14T07:35:14;24.60;99.90
12845;DHT22;68700;48.534;9.196;2023-06-14T07:38:36;24.70;99.90
12845;DHT22;68700;48.534;9.196;2023-06-14T07:41:58;25.20;99.90
12845;DHT22;68700;48.534;9.196;2023-06-14T07:45:20;25.20;99.90
12845;DHT22;68700;48.534;9.196;2023-06-14T07:48:42;25.70;99.90
12845;DHT22;68700;48.534;9.196;2023-06-14T07:52:06;25.80;99.90
12845;DHT22;68700;48.534;9.196;2023-06-14T07:55:27;27.00;99.90
12845;DHT22;68700;48.534;9.196;2023-06-14T07:58:51;26.80;99.90
12845;DHT22;68700;48.534;9.196;2023-06-14T08:02:13;27.50;99.90
12845;DHT22;68700;48.534;9.196;2023-06-14T08:05:34;27.30;99.90
12845;DHT22;68700;48.534;9.196;2023-06-14T08:08:58;27.30;99.90
12845;DHT22;68700;48.534;9.196;2023-06-14T08:12:19;28.20;99.90
12845;DHT22;68700;48.534;9.196;2023-06-14T08:15:41;28.30;99.90
12845;DHT22;68700;48.534;9.196;2023-06-14T08:19:03;28.30;99.90
12845;DHT22;68700;48.534;9.196;2023-06-14T08:22:26;28.30;99.90
12845;DHT22;68700;48.534;9.196;2023-06-14T08:25:53;28.30;99.90
12845;DHT22;68700;48.534;9.196;2023-06-14T08:29:15;27.10;99.90
12845;DHT22;68700;48.534;9.196;2023-06-14T08:32:37;26.00;99.90
12845;DHT22;68700;48.534;9.196;2023-06-14T08:35:59;25.50;99.90
12845;DHT22;68700;48.534;9.196;2023-06-14T08:39:20;24.80;99.90
12845;DHT22;68700;48.534;9.196;2023-06-14T08:42:44;24.50;99.90
12845;DHT22;68700;48.534;9.196;2023-06-14T08:46:06;24.80;99.90
12845;DHT22;68700;48.534;9.196;2023-06-14T08:49:32;25.00;99.90
12845;DHT22;68700;48.534;9.196;2023-06-14T08:52:56;24.70;99.90
12845;DHT22;68700;48.534;9.196;2023-06-14T08:56:21;24.80;99.90
12845;DHT22;68700;48.534;9.196;2023-06-14T08:59:47;24.80;99.90
12845;DHT22;68700;48.534;9.196;2023-06-14T09:03:13;25.10;99.90
12845;DHT22;68700;48.534;9.196;2023-06-14T09:06:35;25.00;99.90
12845;DHT22;68700;48.534;9.196;2023-06-14T09:10:07;25.10;99.90
12845;DHT22;68700;48.534;9.196;2023-06-14T09:13:29;24.90;99.90
12845;DHT22;68700;48.534;9.196;2023-06-14T09:16:54;25.20;99.90
12845;DHT22;68700;48.534;9.196;2023-06-14T09:20:16;24.60;99.90
12845;DHT22;68700;48.534;9.196;2023-06-14T09:23:40;24.90;99.90
12845;DHT22;68700;48.534;9.196;2023-06-14T09:27:02;25.30;99.90
12845;DHT22;68700;48.534;9.196;2023-06-14T09:30:24;25.60;99.90
12845;DHT22;68700;48.534;9.196;2023-06-14T09:33:49;26.00;99.90
12845;DHT22;68700;48.534;9.196;2023-06-14T09:37:11;26.20;99.90
12845;DHT22;68700;48.534;9.196;2023-06-14T09:40:34;26.50;99.90
12845;DHT22;68700;48.534;9.196;2023-06-14T09:43:58;26.80;99.90
12845;DHT22;68700;48.534;9.196;2023-06-14T09:47:24;26.80;99.90
12845;DHT22;68700;48.534;9.196;2023-06-14T09:50:50;27.00;99.90
12845;DHT22;68700;48.534;9.196;2023-06-14T09:54:15;26.60;99.90
12845;DHT22;68700;48.534;9.196;2023-06-14T09:57:40;26.60;99.90
12845;DHT22;68700;48.534;9.196;2023-06-14T10:01:03;26.70;99.90
12845;DHT22;68700;48.534;9.196;2023-06-14T10:04:28;27.10;99.90
12845;DHT22;68700;48.534;9.196;2023-06-14T10:07:56;27.60;99.90
12845;DHT22;68700;48.534;9.196;2023-06-14T10:11:21;27.80;99.90
12845;DHT22;68700;48.534;9.196;2023-06-14T10:14:43;27.70;99.90
12845;DHT22;68700;48.534;9.196;2023-06-14T10:18:10;27.70;99.90
12845;DHT22;68700;48.534;9.196;2023-06-14T10:21:41;27.60;99.90
12845;DHT22;68700;48.534;9.196;2023-06-14T10:25:13;27.80;99.90
12845;DHT22;68700;48.534;9.196;2023-06-14T10:28:40;28.10;99.90
12845;DHT22;68700;48.534;9.196;2023-06-14T10:32:02;28.00;99.90
12845;DHT22;68700;48.534;9.196;2023-06-14T10:35:24;27.90;99.90
12845;DHT22;68700;48.534;9.196;2023-06-14T10:38:46;28.30;99.90
12845;DHT22;68700;48.534;9.196;2023-06-14T10:42:19;28.60;99.90
12845;DHT22;68700;48.534;9.196;2023-06-14T10:46:16;28.70;99.90
12845;DHT22;68700;48.534;9.196;2023-06-14T10:49:40;28.60;99.90
12845;DHT22;68700;48.534;9.196;2023-06-14T10:53:21;26.60;99.90
12845;DHT22;68700;48.534;9.196;2023-06-14T10:56:46;26.20;99.90
12845;DHT22;68700;48.534;9.196;2023-06-14T11:00:11;26.90;99.90
12845;DHT22;68700;48.534;9.196;2023-06-14T11:03:50;27.80;99.90
12845;DHT22;68700;48.534;9.196;2023-06-14T11:07:28;28.30;99.90
12845;DHT22;68700;48.534;9.196;2023-06-14T11:10:59;28.10;99.90
12845;DHT22;68700;48.534;9.196;2023-06-14T11:14:21;27.30;99.90
12845;DHT22;68700;48.534;9.196;2023-06-14T11:17:51;28.10;99.90
12845;DHT22;68700;48.534;9.196;2023-06-14T11:21:16;29.20;99.90
12845;DHT22;68700;48.534;9.196;2023-06-14T11:24:38;28.40;99.90
12845;DHT22;68700;48.534;9.196;2023-06-14T11:28:00;27.90;99.90
12845;DHT22;68700;48.534;9.196;2023-06-14T11:31:22;27.50;99.90
12845;DHT22;68700;48.534;9.196;2023-06-14T11:34:47;27.50;99.90
12845;DHT22;68700;48.534;9.196;2023-06-14T11:38:10;27.80;99.90
12845;DHT22;68700;48.534;9.196;2023-06-14T11:41:37;28.60;99.90
12845;DHT22;68700;48.534;9.196;2023-06-14T11:44:59;28.80;99.90
12845;DHT22;68700;48.534;9.196;2023-06-14T11:48:21;29.20;99.90
12845;DHT22;68700;48.534;9.196;2023-06-14T11:51:45;29.90;99.90
12845;DHT22;68700;48.534;9.196;2023-06-14T11:55:08;29.90;99.90
12845;DHT22;68700;48.534;9.196;2023-06-14T11:58:31;29.90;99.90
12845;DHT22;68700;48.534;9.196;2023-06-14T12:01:53;29.50;99.90
12845;DHT22;68700;48.534;9.196;2023-06-14T12:05:15;29.70;99.90
12845;DHT22;68700;48.534;9.196;2023-06-14T12:08:39;28.90;99.90
12845;DHT22;68700;48.534;9.196;2023-06-14T12:12:01;28.50;99.90
12845;DHT22;68700;48.534;9.196;2023-06-14T12:15:24;28.50;99.90
12845;DHT22;68700;48.534;9.196;2023-06-14T12:18:46;29.30;99.90
12845;DHT22;68700;48.534;9.196;2023-06-14T12:22:09;30.00;99.90
12845;DHT22;68700;48.534;9.196;2023-06-14T12:25:33;29.70;99.90
12845;DHT22;68700;48.534;9.196;2023-06-14T12:28:56;29.50;99.90
12845;DHT22;68700;48.534;9.196;2023-06-14T12:32:18;30.10;99.90
12845;DHT22;68700;48.534;9.196;2023-06-14T12:35:40;29.90;99.90
12845;DHT22;68700;48.534;9.196;2023-06-14T12:39:02;29.80;99.90
12845;DHT22;68700;48.534;9.196;2023-06-14T12:42:26;29.80;99.90
12845;DHT22;68700;48.534;9.196;2023-06-14T12:45:48;30.30;99.90
12845;DHT22;68700;48.534;9.196;2023-06-14T12:49:10;29.70;99.90
12845;DHT22;68700;48.534;9.196;2023-06-14T12:52:32;29.30;99.90
12845;DHT22;68700;48.534;9.196;2023-06-14T12:55:56;29.70;99.90
12845;DHT22;68700;48.534;9.196;2023-06-14T12:59:19;30.10;99.90
12845;DHT22;68700;48.534;9.196;2023-06-14T13:02:41;30.30;99.90
12845;DHT22;68700;48.534;9.196;2023-06-14T13:06:03;30.50;99.90
12845;DHT22;68700;48.534;9.196;2023-06-14T13:09:25;31.20;99.90
12845;DHT22;68700;48.534;9.196;2023-06-14T13:12:47;30.70;99.90
12845;DHT22;68700;48.534;9.196;2023-06-14T13:16:10;30.50;99.90
12845;DHT22;68700;48.534;9.196;2023-06-14T13:19:34;30.80;99.90
12845;DHT22;68700;48.534;9.196;2023-06-14T13:22:56;30.90;99.90
12845;DHT22;68700;48.534;9.196;2023-06-14T13:26:18;30.50;99.90
12845;DHT22;68700;48.534;9.196;2023-06-14T13:29:40;30.40;99.90
12845;DHT22;68700;48.534;9.196;2023-06-14T13:33:04;30.50;99.90
12845;DHT22;68700;48.534;9.196;2023-06-14T13:36:25;31.20;99.90
12845;DHT22;68700;48.534;9.196;2023-06-14T13:39:47;30.60;99.90
12845;DHT22;68700;48.534;9.196;2023-06-14T13:43:09;30.80;99.90
12845;DHT22;68700;48.534;9.196;2023-06-14T13:46:32;30.90;99.90
12845;DHT22;68700;48.534;9.196;2023-06-14T13:49:55;30.50;99.90
12845;DHT22;68700;48.534;9.196;2023-06-14T13:53:23;30.50;99.90
12845;DHT22;68700;48.534;9.196;2023-06-14T13:56:45;30.20;99.90
12845;DHT22;68700;48.534;9.196;2023-06-14T14:00:07;30.70;99.90
12845;DHT22;68700;48.534;9.196;2023-06-14T14:03:30;30.80;99.90
12845;DHT22;68700;48.534;9.196;2023-06-14T14:06:53;31.30;99.90
12845;DHT22;68700;48.534;9.196;2023-06-14T14:10:15;31.40;99.90
12845;DHT22;68700;48.534;9.196;2023-06-14T14:13:38;31.20;99.90
12845;DHT22;68700;48.534;9.196;2023-06-14T14:17:01;31.00;99.90
12845;DHT22;68700;48.534;9.196;2023-06-14T14:20:23;30.80;99.90
12845;DHT22;68700;48.534;9.196;2023-06-14T14:23:46;30.50;99.90
12845;DHT22;68700;48.534;9.196;2023-06-14T14:27:10;30.30;99.90
12845;DHT22;68700;48.534;9.196;2023-06-14T14:30:32;29.80;99.90
12845;DHT22;68700;48.534;9.196;2023-06-14T14:33:54;30.40;99.90
12845;DHT22;68700;48.534;9.196;2023-06-14T14:37:16;30.70;99.90
12845;DHT22;68700;48.534;9.196;2023-06-14T14:40:40;30.80;99.90
12845;DHT22;68700;48.534;9.196;2023-06-14T14:44:02;30.80;99.90
12845;DHT22;68700;48.534;9.196;2023-06-14T14:47:24;30.50;99.90
12845;DHT22;68700;48.534;9.196;2023-06-14T14:50:45;30.90;99.90
12845;DHT22;68700;48.534;9.196;2023-06-14T14:54:08;31.60;99.90
12845;DHT22;68700;48.534;9.196;2023-06-14T14:57:31;30.90;99.90
12845;DHT22;68700;48.534;9.196;2023-06-14T15:00:53;31.00;99.90
12845;DHT22;68700;48.534;9.196;2023-06-14T15:04:15;30.80;99.90
12845;DHT22;68700;48.534;9.196;2023-06-14T15:07:37;30.80;99.90
12845;DHT22;68700;48.534;9.196;2023-06-14T15:11:00;30.80;99.90
12845;DHT22;68700;48.534;9.196;2023-06-14T15:14:24;30.50;99.90
12845;DHT22;68700;48.534;9.196;2023-06-14T15:17:46;30.70;99.90
12845;DHT22;68700;48.534;9.196;2023-06-14T15:21:08;30.50;99.90
12845;DHT22;68700;48.534;9.196;2023-06-14T15:24:30;29.50;99.90
12845;DHT22;68700;48.534;9.196;2023-06-14T15:27:53;29.10;99.90
12845;DHT22;68700;48.534;9.196;2023-06-14T15:31:24;29.50;99.90
12845;DHT22;68700;48.534;9.196;2023-06-14T15:34:48;29.90;99.90
12845;DHT22;68700;48.534;9.196;2023-06-14T15:38:10;30.40;99.90
12845;DHT22;68700;48.534;9.196;2023-06-14T15:41:32;30.20;99.90
12845;DHT22;68700;48.534;9.196;2023-06-14T15:44:53;29.50;99.90
12845;DHT22;68700;48.534;9.196;2023-06-14T15:48:17;28.90;99.90
12845;DHT22;68700;48.534;9.196;2023-06-14T15:51:38;29.30;99.90
12845;DHT22;68700;48.534;9.196;2023-06-14T15:55:00;29.30;99.90
12845;DHT22;68700;48.534;9.196;2023-06-14T15:58:23;29.50;99.90
12845;DHT22;68700;48.534;9.196;2023-06-14T16:01:45;29.10;99.90
12845;DHT22;68700;48.534;9.196;2023-06-14T16:05:09;29.80;99.90
12845;DHT22;68700;48.534;9.196;2023-06-14T16:08:31;29.50;99.90
12845;DHT22;68700;48.534;9.196;2023-06-14T16:11:53;28.70;99.90
12845;DHT22;68700;48.534;9.196;2023-06-14T16:15:15;27.60;99.90
12845;DHT22;68700;48.534;9.196;2023-06-14T16:18:38;26.90;99.90
12845;DHT22;68700;48.534;9.196;2023-06-14T16:22:01;26.90;99.90
12845;DHT22;68700;48.534;9.196;2023-06-14T16:25:23;27.30;99.90
12845;DHT22;68700;48.534;9.196;2023-06-14T16:28:45;28.00;99.90
12845;DHT22;68700;48.534;9.196;2023-06-14T16:32:08;27.90;99.90
12845;DHT22;68700;48.534;9.196;2023-06-14T16:35:30;27.90;99.90
12845;DHT22;68700;48.534;9.196;2023-06-14T16:38:53;27.50;99.90
12845;DHT22;68700;48.534;9.196;2023-06-14T16:42:15;32.20;99.90
12845;DHT22;68700;48.534;9.196;2023-06-14T16:45:37;32.40;99.90
12845;DHT22;68700;48.534;9.196;2023-06-14T16:48:59;32.50;99.90
12845;DHT22;68700;48.534;9.196;2023-06-14T16:52:21;32.40;99.90
12845;DHT22;68700;48.534;9.196;2023-06-14T16:55:44;32.90;99.90
12845;DHT22;68700;48.534;9.196;2023-06-14T16:59:06;32.40;99.90
12845;DHT22;68700;48.534;9.196;2023-06-14T17:02:28;32.60;99.90
12845;DHT22;68700;48.534;9.196;2023-06-14T17:05:54;32.00;99.90
12845;DHT22;68700;48.534;9.196;2023-06-14T17:09:16;31.60;99.90
12845;DHT22;68700;48.534;9.196;2023-06-14T17:12:39;30.60;99.90
12845;DHT22;68700;48.534;9.196;2023-06-14T17:16:02;28.40;99.90
12845;DHT22;68700;48.534;9.196;2023-06-14T17:19:25;27.60;99.90
12845;DHT22;68700;48.534;9.196;2023-06-14T17:22:47;27.20;99.90
12845;DHT22;68700;48.534;9.196;2023-06-14T17:26:09;27.60;99.90
12845;DHT22;68700;48.534;9.196;2023-06-14T17:29:32;27.70;99.90
12845;DHT22;68700;48.534;9.196;2023-06-14T17:32:54;27.20;99.90
12845;DHT22;68700;48.534;9.196;2023-06-14T17:36:16;26.70;99.90
12845;DHT22;68700;48.534;9.196;2023-06-14T17:39:41;26.60;99.90
12845;DHT22;68700;48.534;9.196;2023-06-14T17:43:03;26.10;99.90
12845;DHT22;68700;48.534;9.196;2023-06-14T17:46:26;26.00;99.90
12845;DHT22;68700;48.534;9.196;2023-06-14T17:49:48;25.40;99.90
12845;DHT22;68700;48.534;9.196;2023-06-14T17:53:11;25.20;99.90
12845;DHT22;68700;48.534;9.196;2023-06-14T17:56:33;24.90;99.90
12845;DHT22;68700;48.534;9.196;2023-06-14T17:59:55;24.80;99.90
12845;DHT22;68700;48.534;9.196;2023-06-14T18:03:18;24.60;99.90
12845;DHT22;68700;48.534;9.196;2023-06-14T18:06:40;24.60;99.90
12845;DHT22;68700;48.534;9.196;2023-06-14T18:10:02;24.60;99.90
12845;DHT22;68700;48.534;9.196;2023-06-14T18:13:24;24.50;99.90
12845;DHT22;68700;48.534;9.196;2023-06-14T18:16:46;24.20;99.90
12845;DHT22;68700;48.534;9.196;2023-06-14T18:20:11;24.10;99.90
12845;DHT22;68700;48.534;9.196;2023-06-14T18:23:33;23.80;99.90
12845;DHT22;68700;48.534;9.196;2023-06-14T18:26:55;23.60;99.90
12845;DHT22;68700;48.534;9.196;2023-06-14T18:30:17;23.50;99.90
12845;DHT22;68700;48.534;9.196;2023-06-14T18:33:39;23.40;99.90
12845;DHT22;68700;48.534;9.196;2023-06-14T18:37:02;23.20;99.90
12845;DHT22;68700;48.534;9.196;2023-06-14T18:40:24;23.10;99.90
12845;DHT22;68700;48.534;9.196;2023-06-14T18:43:46;23.00;99.90
12845;DHT22;68700;48.534;9.196;2023-06-14T18:47:08;22.90;99.90
12845;DHT22;68700;48.534;9.196;2023-06-14T18:50:31;22.80;99.90
12845;DHT22;68700;48.534;9.196;2023-06-14T18:53:54;22.70;99.90
12845;DHT22;68700;48.534;9.196;2023-06-14T18:57:16;22.60;99.90
12845;DHT22;68700;48.534;9.196;2023-06-14T19:00:41;22.40;99.90
12845;DHT22;68700;48.534;9.196;2023-06-14T19:04:03;22.30;99.90
12845;DHT22;68700;48.534;9.196;2023-06-14T19:07:25;22.20;99.90
12845;DHT22;68700;48.534;9.196;2023-06-14T19:10:48;21.90;99.90
12845;DHT22;68700;48.534;9.196;2023-06-14T19:14:11;21.80;99.90
12845;DHT22;68700;48.534;9.196;2023-06-14T19:17:35;21.60;99.90
12845;DHT22;68700;48.534;9.196;2023-06-14T19:20:57;21.50;99.90
12845;DHT22;68700;48.534;9.196;2023-06-14T19:24:19;21.30;99.90
12845;DHT22;68700;48.534;9.196;2023-06-14T19:27:42;21.20;99.90
12845;DHT22;68700;48.534;9.196;2023-06-14T19:31:04;21.00;99.90
12845;DHT22;68700;48.534;9.196;2023-06-14T19:34:26;20.90;99.90
12845;DHT22;68700;48.534;9.196;2023-06-14T19:37:48;20.80;99.90
12845;DHT22;68700;48.534;9.196;2023-06-14T19:41:10;20.70;99.90
12845;DHT22;68700;48.534;9.196;2023-06-14T19:44:33;20.50;99.90
12845;DHT22;68700;48.534;9.196;2023-06-14T19:47:55;20.30;99.90
12845;DHT22;68700;48.534;9.196;2023-06-14T19:51:16;20.10;99.90
12845;DHT22;68700;48.534;9.196;2023-06-14T19:54:38;20.00;99.90
12845;DHT22;68700;48.534;9.196;2023-06-14T19:58:00;19.80;99.90
12845;DHT22;68700;48.534;9.196;2023-06-14T20:01:23;19.60;99.90
12845;DHT22;68700;48.534;9.196;2023-06-14T20:04:45;19.50;99.90
12845;DHT22;68700;48.534;9.196;2023-06-14T20:08:07;19.30;99.90
12845;DHT22;68700;48.534;9.196;2023-06-14T20:11:29;19.20;99.90
12845;DHT22;68700;48.534;9.196;2023-06-14T20:14:51;19.10;99.90
12845;DHT22;68700;48.534;9.196;2023-06-14T20:18:14;19.00;99.90
12845;DHT22;68700;48.534;9.196;2023-06-14T20:21:36;18.80;99.90
12845;DHT22;68700;48.534;9.196;2023-06-14T20:24:58;18.70;99.90
12845;DHT22;68700;48.534;9.196;2023-06-14T20:28:20;18.60;99.90
12845;DHT22;68700;48.534;9.196;2023-06-14T20:31:41;18.50;99.90
12845;DHT22;68700;48.534;9.196;2023-06-14T20:35:06;18.30;99.90
12845;DHT22;68700;48.534;9.196;2023-06-14T20:38:29;18.30;99.90
12845;DHT22;68700;48.534;9.196;2023-06-14T20:41:51;18.20;99.90
12845;DHT22;68700;48.534;9.196;2023-06-14T20:45:17;18.00;99.90
12845;DHT22;68700;48.534;9.196;2023-06-14T20:48:38;17.90;99.90
12845;DHT22;68700;48.534;9.196;2023-06-14T20:52:02;17.80;99.90
12845;DHT22;68700;48.534;9.196;2023-06-14T20:55:24;17.70;99.90
12845;DHT22;68700;48.534;9.196;2023-06-14T20:58:46;17.60;99.90
12845;DHT22;68700;48.534;9.196;2023-06-14T21:02:08;17.50;99.90
12845;DHT22;68700;48.534;9.196;2023-06-14T21:05:35;17.40;99.90
12845;DHT22;68700;48.534;9.196;2023-06-14T21:08:58;17.30;99.90
12845;DHT22;68700;48.534;9.196;2023-06-14T21:12:20;17.20;99.90
12845;DHT22;68700;48.534;9.196;2023-06-14T21:15:42;17.20;99.90
12845;DHT22;68700;48.534;9.196;2023-06-14T21:19:04;17.10;99.90
12845;DHT22;68700;48.534;9.196;2023-06-14T21:22:26;17.10;99.90
12845;DHT22;68700;48.534;9.196;2023-06-14T21:25:49;16.90;99.90
12845;DHT22;68700;48.534;9.196;2023-06-14T21:29:11;16.80;99.90
12845;DHT22;68700;48.534;9.196;2023-06-14T21:32:33;16.70;99.90